createdAt,value
2023-05-05T00:02:23.211Z,53.67
2023-05-05T00:04:49.610Z,53.71
2023-05-05T00:07:17.299Z,54.39
2023-05-05T00:09:43.702Z,54.52
2023-05-05T00:12:10.144Z,54.03
2023-05-05T00:14:36.584Z,54.71
2023-05-05T00:17:03.025Z,54.15
2023-05-05T00:19:29.444Z,54.73
2023-05-05T00:21:55.806Z,54.62
2023-05-05T00:24:23.730Z,55.68
2023-05-05T00:26:50.121Z,55.24
2023-05-05T00:29:16.480Z,55.98
2023-05-05T00:31:42.920Z,55.01
2023-05-05T00:34:09.358Z,54.95
2023-05-05T00:36:35.692Z,54.53
2023-05-05T00:39:02.084Z,55.97
2023-05-05T00:41:29.808Z,56.57
2023-05-05T00:43:56.169Z,56.20
2023-05-05T00:46:24.221Z,56.83
2023-05-05T00:48:50.935Z,56.77
2023-05-05T00:51:18.095Z,57.11
2023-05-05T00:53:44.722Z,57.32
2023-05-05T00:56:11.853Z,57.11
2023-05-05T00:58:41.519Z,57.04
2023-05-05T01:01:08.176Z,57.18
2023-05-05T01:03:36.004Z,57.65
2023-05-05T01:06:11.328Z,57.85
2023-05-05T01:08:51.025Z,57.64
2023-05-05T01:11:25.193Z,58.27
2023-05-05T01:14:05.785Z,57.95
2023-05-05T01:16:36.721Z,58.82
2023-05-05T01:19:17.298Z,57.95
2023-05-05T01:21:48.132Z,58.84
2023-05-05T01:24:37.967Z,58.85
2023-05-05T01:27:28.934Z,58.60
2023-05-05T01:30:05.222Z,58.58
2023-05-05T01:32:38.468Z,59.27
2023-05-05T01:35:13.568Z,58.61
2023-05-05T01:37:46.501Z,59.00
2023-05-05T01:40:15.312Z,58.54
2023-05-05T01:42:43.894Z,58.40
2023-05-05T01:45:12.686Z,58.68
2023-05-05T01:47:43.405Z,59.19
2023-05-05T01:50:12.093Z,59.27
2023-05-05T01:52:40.071Z,59.39
2023-05-05T01:55:08.752Z,59.46
2023-05-05T01:57:38.390Z,59.54
2023-05-05T02:00:07.284Z,59.53
2023-05-05T02:02:36.075Z,59.53
2023-05-05T02:05:06.330Z,60.28
2023-05-05T02:07:33.865Z,60.91
2023-05-05T02:10:02.073Z,60.44
2023-05-05T02:12:30.983Z,59.79
2023-05-05T02:15:01.255Z,61.08
2023-05-05T02:17:29.360Z,61.03
2023-05-05T02:19:58.101Z,60.88
2023-05-05T02:22:25.827Z,60.90
2023-05-05T02:24:52.302Z,61.44
2023-05-05T02:27:20.036Z,62.08
2023-05-05T02:29:49.242Z,62.11
2023-05-05T02:32:20.299Z,62.37
2023-05-05T02:34:49.838Z,62.71
2023-05-05T02:37:21.385Z,63.29
2023-05-05T02:39:54.368Z,63.56
2023-05-05T02:42:22.761Z,63.51
2023-05-05T02:44:51.678Z,63.09
2023-05-05T02:47:18.056Z,63.53
2023-05-05T02:49:44.441Z,63.89
2023-05-05T02:52:10.854Z,64.92
2023-05-05T02:54:37.283Z,64.37
2023-05-05T02:57:04.989Z,63.26
2023-05-05T02:59:37.475Z,63.98
2023-05-05T03:02:14.412Z,63.76
2023-05-05T03:04:45.020Z,64.67
2023-05-05T03:07:15.890Z,65.15
2023-05-05T03:09:49.578Z,66.47
2023-05-05T03:12:19.912Z,66.71
2023-05-05T03:14:48.503Z,66.59
2023-05-05T03:17:18.432Z,66.06
2023-05-05T03:19:45.949Z,66.72
2023-05-05T03:22:12.760Z,66.08
2023-05-05T03:24:39.114Z,66.35
2023-05-05T03:27:05.528Z,66.95
2023-05-05T03:29:33.250Z,66.21
2023-05-05T03:31:59.744Z,66.91
2023-05-05T03:34:26.426Z,66.92
2023-05-05T03:36:52.825Z,66.94
2023-05-05T03:39:19.193Z,66.57
2023-05-05T03:41:45.566Z,66.53
2023-05-05T03:44:11.932Z,66.64
2023-05-05T03:46:39.720Z,66.33
2023-05-05T03:49:06.097Z,66.67
2023-05-05T03:51:32.480Z,67.08
2023-05-05T03:53:58.844Z,67.78
2023-05-05T03:56:25.212Z,66.83
2023-05-05T03:58:51.580Z,67.88
2023-05-05T04:01:17.990Z,68.87
2023-05-05T04:03:45.750Z,68.59
2023-05-05T04:06:12.124Z,67.63
2023-05-05T04:08:38.533Z,67.96
2023-05-05T04:11:04.986Z,67.95
2023-05-05T04:13:31.359Z,68.17
2023-05-05T04:15:57.750Z,68.79
2023-05-05T04:18:24.174Z,66.89
2023-05-05T04:20:51.982Z,67.30
2023-05-05T04:23:18.383Z,68.85
2023-05-05T04:25:44.853Z,67.05
2023-05-05T04:28:11.240Z,67.58
2023-05-05T04:30:37.584Z,67.24
2023-05-05T04:33:04.242Z,67.75
2023-05-05T04:35:30.697Z,68.24
2023-05-05T04:37:58.397Z,67.94
2023-05-05T04:40:24.837Z,68.20
2023-05-05T04:42:51.238Z,68.51
2023-05-05T04:45:18.225Z,70.26
2023-05-05T04:47:44.676Z,69.29
2023-05-05T04:50:11.248Z,69.88
2023-05-05T04:52:37.789Z,68.23
2023-05-05T04:55:06.579Z,68.19
2023-05-05T04:57:32.942Z,69.31
2023-05-05T05:00:00.447Z,69.25
2023-05-05T05:02:26.937Z,68.16
2023-05-05T05:04:53.346Z,68.67
2023-05-05T05:07:19.738Z,68.93
2023-05-05T05:09:46.173Z,67.67
2023-05-05T05:12:13.942Z,66.62
2023-05-05T05:14:40.351Z,66.55
2023-05-05T05:17:07.029Z,66.56
2023-05-05T05:19:33.909Z,65.26
2023-05-05T05:22:00.301Z,64.08
2023-05-05T05:24:26.777Z,66.20
2023-05-05T05:26:53.270Z,65.13
2023-05-05T05:29:20.983Z,63.74
2023-05-05T05:31:47.444Z,63.81
2023-05-05T05:34:13.840Z,64.13
2023-05-05T05:36:40.219Z,64.00
2023-05-05T05:39:06.619Z,64.82
2023-05-05T05:41:33.111Z,64.13
2023-05-05T05:43:59.535Z,63.04
2023-05-05T05:46:27.493Z,62.31
2023-05-05T05:48:53.906Z,59.11
2023-05-05T05:51:20.271Z,62.69
2023-05-05T05:53:46.645Z,60.68
2023-05-05T05:56:13.065Z,61.47
2023-05-05T05:58:39.478Z,61.99
2023-05-05T06:01:05.963Z,61.37
2023-05-05T06:03:33.855Z,61.36
2023-05-05T06:06:01.057Z,59.49
2023-05-05T06:08:27.414Z,58.10
2023-05-05T06:10:53.802Z,57.19
2023-05-05T06:13:20.243Z,57.33
2023-05-05T06:15:46.694Z,57.65
2023-05-05T06:18:13.277Z,57.82
2023-05-05T06:20:41.025Z,56.63
2023-05-05T06:23:07.595Z,57.55
2023-05-05T06:25:33.981Z,57.90
2023-05-05T06:28:00.372Z,57.43
2023-05-05T06:30:27.058Z,59.19
2023-05-05T06:32:53.528Z,58.86
2023-05-05T06:35:19.952Z,59.69
2023-05-05T06:37:47.703Z,57.81
2023-05-05T06:40:14.252Z,57.80
2023-05-05T06:42:40.627Z,58.45
2023-05-05T06:45:08.501Z,58.78
2023-05-05T06:47:35.483Z,58.90
2023-05-05T06:50:01.956Z,57.35
2023-05-05T06:52:28.363Z,57.79
2023-05-05T06:54:56.110Z,57.24
2023-05-05T06:57:22.476Z,57.32
2023-05-05T06:59:48.920Z,58.02
2023-05-05T07:02:15.309Z,58.56
2023-05-05T07:04:42.348Z,57.74
2023-05-05T07:07:08.703Z,58.24
2023-05-05T07:09:35.091Z,57.23
2023-05-05T07:12:02.931Z,56.07
2023-05-05T07:14:29.352Z,55.99
2023-05-05T07:16:55.805Z,55.59
2023-05-05T07:19:22.307Z,51.56
2023-05-05T07:21:48.705Z,45.96
2023-05-05T07:24:15.057Z,43.69
2023-05-05T07:26:41.519Z,44.69
2023-05-05T07:29:09.397Z,46.12
2023-05-05T07:31:35.808Z,48.77
2023-05-05T07:34:02.234Z,46.46
2023-05-05T07:36:28.638Z,51.20
2023-05-05T07:38:55.110Z,50.25
2023-05-05T07:41:21.558Z,48.92
2023-05-05T07:43:48.081Z,51.59
2023-05-05T07:46:15.799Z,51.70
2023-05-05T07:48:42.219Z,53.44
2023-05-05T07:51:09.352Z,53.36
2023-05-05T07:53:35.791Z,55.18
2023-05-05T07:56:02.386Z,55.05
2023-05-05T07:58:28.825Z,54.70
2023-05-05T08:00:55.248Z,55.06
2023-05-05T08:03:23.098Z,51.25
2023-05-05T08:05:51.698Z,51.42
2023-05-05T08:08:18.261Z,51.60
2023-05-05T08:10:44.644Z,50.96
2023-05-05T08:13:11.263Z,50.32
2023-05-05T08:15:37.677Z,50.81
2023-05-05T08:18:04.099Z,50.42
2023-05-05T08:20:31.919Z,51.42
2023-05-05T08:22:59.020Z,50.67
2023-05-05T08:25:25.450Z,51.81
2023-05-05T08:27:52.158Z,52.10
2023-05-05T08:30:18.621Z,51.23
2023-05-05T08:32:45.096Z,52.61
2023-05-05T08:35:12.155Z,52.50
2023-05-05T08:37:40.166Z,52.91
2023-05-05T08:40:07.809Z,52.12
2023-05-05T08:42:38.409Z,52.19
2023-05-05T08:45:08.303Z,52.90
2023-05-05T08:47:35.252Z,53.39
2023-05-05T08:50:02.559Z,52.52
2023-05-05T08:52:37.610Z,53.76
2023-05-05T08:55:13.405Z,52.66
2023-05-05T08:57:43.975Z,53.78
2023-05-05T09:00:12.697Z,53.46
2023-05-05T09:02:40.373Z,51.19
2023-05-05T09:05:07.731Z,51.06
2023-05-05T09:07:34.994Z,51.03
2023-05-05T09:10:03.347Z,51.23
2023-05-05T09:12:31.616Z,49.65
2023-05-05T09:14:59.405Z,51.42
2023-05-05T09:17:26.538Z,51.21
2023-05-05T09:20:01.163Z,49.68
2023-05-05T09:22:35.457Z,48.68
2023-05-05T09:25:02.351Z,47.79
2023-05-05T09:27:36.171Z,48.36
2023-05-05T09:30:05.135Z,49.85
2023-05-05T09:32:43.145Z,49.92
2023-05-05T09:35:09.829Z,47.70
2023-05-05T09:37:36.376Z,47.44
2023-05-05T09:40:02.813Z,46.50
2023-05-05T09:42:29.603Z,46.85
2023-05-05T09:44:59.110Z,46.34
2023-05-05T09:47:35.166Z,47.37
2023-05-05T09:50:02.067Z,45.34
2023-05-05T09:52:28.632Z,46.44
2023-05-05T09:54:55.745Z,47.13
2023-05-05T09:57:26.961Z,46.28
2023-05-05T09:59:54.911Z,46.51
2023-05-05T10:02:29.488Z,45.58
2023-05-05T10:05:08.216Z,45.28
2023-05-05T10:07:36.038Z,46.80
2023-05-05T10:10:03.698Z,45.75
2023-05-05T10:12:31.614Z,46.66
2023-05-05T10:15:01.301Z,44.77
2023-05-05T10:17:30.295Z,44.60
2023-05-05T10:19:57.985Z,46.11
2023-05-05T10:22:28.293Z,47.33
2023-05-05T10:24:57.653Z,46.58
2023-05-05T10:27:32.955Z,46.12
2023-05-05T10:30:04.169Z,46.65
2023-05-05T10:32:56.917Z,46.81
2023-05-05T10:35:24.747Z,47.23
2023-05-05T10:37:53.021Z,47.44
2023-05-05T10:40:22.103Z,47.22
2023-05-05T10:42:49.709Z,46.98
2023-05-05T10:45:16.598Z,45.25
2023-05-05T10:47:43.585Z,44.60
2023-05-05T10:50:17.970Z,45.38
2023-05-05T10:52:53.409Z,45.08
2023-05-05T10:55:27.728Z,46.11
2023-05-05T10:57:54.199Z,47.04
2023-05-05T11:03:22.988Z,45.82
2023-05-05T11:06:11.720Z,44.62
2023-05-05T11:08:39.305Z,44.62
2023-05-05T11:11:06.378Z,42.79
2023-05-05T11:13:32.838Z,42.63
2023-05-05T11:16:00.559Z,44.80
2023-05-05T11:18:35.983Z,45.31
2023-05-05T11:21:14.155Z,45.08
2023-05-05T11:23:41.365Z,46.42
2023-05-05T11:26:07.926Z,47.24
2023-05-05T11:28:34.662Z,46.75
2023-05-05T11:31:20.414Z,46.68
2023-05-05T11:33:48.404Z,47.42
2023-05-05T11:36:16.277Z,47.91
2023-05-05T11:39:03.771Z,47.44
2023-05-05T11:41:57.368Z,47.48
2023-05-05T11:44:30.211Z,47.60
2023-05-05T11:47:30.573Z,49.53
2023-05-05T11:49:58.592Z,48.67
2023-05-05T11:52:26.672Z,50.15
2023-05-05T11:54:53.125Z,52.49
2023-05-05T11:57:27.030Z,55.32
2023-05-05T11:59:55.033Z,52.97
2023-05-05T12:02:22.204Z,54.68
2023-05-05T12:04:49.120Z,53.66
2023-05-05T12:07:18.150Z,52.45
2023-05-05T12:09:45.648Z,51.63
2023-05-05T12:12:12.875Z,53.09
2023-05-05T12:14:47.089Z,51.05
2023-05-05T12:17:13.550Z,49.46
2023-05-05T12:19:45.464Z,49.09
2023-05-05T12:22:20.564Z,49.05
2023-05-05T12:24:55.100Z,44.81
2023-05-05T12:27:21.984Z,45.60
2023-05-05T12:29:48.977Z,47.32
2023-05-05T12:32:20.801Z,48.39
2023-05-05T12:34:48.027Z,48.68
2023-05-05T12:37:14.807Z,48.43
2023-05-05T12:39:42.517Z,47.14
2023-05-05T12:42:08.956Z,46.76
2023-05-05T12:44:35.896Z,44.53
2023-05-05T12:47:02.449Z,46.62
2023-05-05T12:49:29.136Z,45.20
2023-05-05T12:51:56.647Z,45.66
2023-05-05T12:54:24.042Z,45.28
2023-05-05T12:56:51.941Z,46.03
2023-05-05T12:59:30.688Z,47.87
2023-05-05T13:01:58.652Z,47.37
2023-05-05T13:04:26.014Z,48.83
2023-05-05T13:07:08.115Z,47.52
2023-05-05T13:09:34.556Z,47.14
2023-05-05T13:12:02.707Z,47.86
2023-05-05T13:14:29.519Z,48.63
2023-05-05T13:16:56.092Z,47.97
2023-05-05T13:19:22.702Z,46.37
2023-05-05T13:21:49.096Z,46.65
2023-05-05T13:26:44.878Z,45.67
2023-05-05T13:29:12.616Z,44.84
2023-05-05T13:31:39.065Z,44.71
2023-05-05T13:34:05.529Z,45.84
2023-05-05T13:36:31.970Z,44.59
2023-05-05T13:38:58.338Z,43.48
2023-05-05T13:41:24.699Z,42.74
2023-05-05T13:43:51.152Z,44.21
2023-05-05T13:46:20.294Z,42.88
2023-05-05T13:48:46.964Z,43.44
2023-05-05T13:51:13.384Z,43.93
2023-05-05T13:53:39.808Z,43.79
2023-05-05T13:56:06.510Z,42.40
2023-05-05T13:58:33.148Z,44.73
2023-05-05T14:00:59.590Z,45.53
2023-05-05T14:03:27.314Z,45.64
2023-05-05T14:05:53.767Z,44.75
2023-05-05T14:08:20.152Z,44.28
2023-05-05T14:10:48.073Z,45.00
2023-05-05T14:13:15.400Z,44.71
2023-05-05T14:15:42.150Z,45.47
2023-05-05T14:18:08.722Z,44.63
2023-05-05T14:20:36.494Z,45.52
2023-05-05T14:23:02.901Z,45.78
2023-05-05T14:25:29.336Z,44.82
2023-05-05T14:27:55.765Z,44.70
2023-05-05T14:30:22.470Z,44.50
2023-05-05T14:32:48.932Z,45.36
2023-05-05T14:35:15.586Z,45.51
2023-05-05T14:37:43.280Z,45.28
2023-05-05T14:40:10.184Z,45.53
2023-05-05T14:42:36.557Z,46.64
2023-05-05T14:45:03.269Z,47.05
2023-05-05T14:47:29.690Z,47.58
2023-05-05T14:49:56.113Z,47.49
2023-05-05T14:52:22.950Z,47.35
2023-05-05T14:54:50.658Z,47.33
2023-05-05T14:57:17.098Z,47.12
2023-05-05T14:59:43.470Z,46.64
2023-05-05T15:02:09.834Z,45.89
2023-05-05T15:04:36.257Z,45.15
2023-05-05T15:07:02.638Z,45.55
2023-05-05T15:09:29.008Z,46.34
2023-05-05T15:11:56.707Z,46.52
2023-05-05T15:14:23.081Z,47.45
2023-05-05T15:16:49.455Z,46.59
2023-05-05T15:19:16.016Z,47.85
2023-05-05T15:21:42.404Z,47.68
2023-05-05T15:24:08.804Z,47.05
2023-05-05T15:26:35.214Z,46.83
2023-05-05T15:29:02.901Z,48.68
2023-05-05T15:31:29.308Z,46.74
2023-05-05T15:33:55.744Z,45.68
2023-05-05T15:36:22.160Z,46.22
2023-05-05T15:38:48.548Z,48.06
2023-05-05T15:41:14.934Z,47.64
2023-05-05T15:43:41.345Z,47.28
2023-05-05T15:46:09.021Z,51.09
2023-05-05T15:48:35.404Z,50.70
2023-05-05T15:51:01.773Z,50.41
2023-05-05T15:53:28.274Z,51.14
2023-05-05T15:55:54.701Z,49.27
2023-05-05T15:58:21.120Z,53.80
2023-05-05T16:00:47.510Z,54.32
2023-05-05T16:03:15.352Z,53.21
2023-05-05T16:05:41.776Z,53.96
2023-05-05T16:08:08.121Z,52.65
2023-05-05T16:10:34.525Z,55.41
2023-05-05T16:13:00.892Z,55.57
2023-05-05T16:15:27.559Z,54.48
2023-05-05T16:17:54.117Z,56.19
2023-05-05T16:20:21.896Z,55.29
2023-05-05T16:22:48.286Z,57.74
2023-05-05T16:25:14.878Z,60.73
2023-05-05T16:27:41.346Z,61.26
2023-05-05T16:30:09.912Z,61.83
2023-05-05T16:32:36.372Z,62.06
2023-05-05T16:35:02.843Z,62.98
2023-05-05T16:37:30.575Z,63.35
2023-05-05T16:39:56.994Z,65.76
2023-05-05T16:42:23.405Z,66.42
2023-05-05T16:44:49.804Z,72.14
2023-05-05T16:47:16.248Z,73.90
2023-05-05T16:49:42.623Z,74.50
2023-05-05T16:52:08.984Z,73.44
2023-05-05T16:54:36.669Z,71.56
2023-05-05T16:57:03.157Z,72.29
2023-05-05T16:59:31.519Z,70.42
2023-05-05T17:01:58.179Z,75.75
2023-05-05T17:04:24.605Z,75.93
2023-05-05T17:06:50.952Z,74.87
2023-05-05T17:09:17.371Z,74.27
2023-05-05T17:11:45.062Z,78.58
2023-05-05T17:14:11.479Z,74.69
2023-05-05T17:16:38.121Z,74.56
2023-05-05T17:19:04.566Z,79.73
2023-05-05T17:21:30.946Z,84.32
2023-05-05T17:23:57.342Z,83.13
2023-05-05T17:26:23.741Z,82.13
2023-05-05T17:28:51.407Z,82.81
2023-05-05T17:31:17.970Z,86.25
2023-05-05T17:33:44.396Z,90.34
2023-05-05T17:36:10.755Z,91.04
2023-05-05T17:38:37.200Z,93.84
2023-05-05T17:41:03.569Z,92.90
2023-05-05T17:43:29.956Z,88.84
2023-05-05T17:45:57.722Z,87.95
2023-05-05T17:48:24.097Z,86.24
2023-05-05T17:50:50.531Z,87.29
2023-05-05T17:53:16.930Z,83.40
2023-05-05T17:55:44.513Z,82.16
2023-05-05T17:58:10.996Z,79.31
2023-05-05T18:00:37.442Z,81.80
2023-05-05T18:03:05.210Z,81.13
2023-05-05T18:05:31.884Z,83.71
2023-05-05T18:07:58.251Z,81.80
2023-05-05T18:10:25.469Z,80.42
2023-05-05T18:12:51.867Z,79.51
2023-05-05T18:15:18.349Z,79.97
2023-05-05T18:17:50.868Z,81.84
2023-05-05T18:20:18.842Z,80.41
2023-05-05T18:22:45.194Z,81.50
2023-05-05T18:25:11.778Z,84.09
2023-05-05T18:27:39.674Z,82.81
2023-05-05T18:30:07.528Z,86.63
2023-05-05T18:32:34.018Z,84.29
2023-05-05T18:35:00.905Z,83.41
2023-05-05T18:37:28.650Z,82.54
2023-05-05T18:39:55.031Z,82.70
2023-05-05T18:42:21.442Z,83.69
2023-05-05T18:44:47.803Z,84.67
2023-05-05T18:47:14.181Z,83.22
2023-05-05T18:49:40.552Z,84.40
2023-05-05T18:52:06.908Z,84.24
2023-05-05T18:54:36.226Z,85.16
2023-05-05T18:57:04.003Z,82.69
2023-05-05T18:59:30.341Z,82.46
2023-05-05T19:01:56.712Z,82.52
2023-05-05T19:04:30.596Z,81.47
2023-05-05T19:06:57.965Z,81.90
2023-05-05T19:09:24.386Z,84.14
2023-05-05T19:11:52.111Z,83.75
2023-05-05T19:14:18.498Z,87.76
2023-05-05T19:16:45.040Z,91.97
2023-05-05T19:19:11.441Z,87.97
2023-05-05T19:21:38.310Z,88.59
2023-05-05T19:24:06.373Z,91.00
2023-05-05T19:26:32.733Z,89.44
2023-05-05T19:29:00.507Z,91.07
2023-05-05T19:31:26.982Z,92.71
2023-05-05T19:33:55.395Z,92.58
2023-05-05T19:36:21.798Z,94.03
2023-05-05T19:38:48.172Z,95.61
2023-05-05T19:41:14.592Z,95.52
2023-05-05T19:43:40.956Z,94.65
2023-05-05T19:46:08.697Z,100.00
2023-05-05T19:48:35.086Z,98.81
2023-05-05T19:51:01.503Z,98.13
2023-05-05T19:53:27.897Z,96.15
2023-05-05T19:55:54.335Z,98.71
2023-05-05T19:58:20.692Z,97.39
2023-05-05T20:00:47.160Z,95.27
2023-05-05T20:03:14.956Z,93.25
2023-05-05T20:05:41.329Z,94.61
2023-05-05T20:08:07.837Z,94.06
2023-05-05T20:10:34.357Z,94.61
2023-05-05T20:13:00.817Z,93.47
2023-05-05T20:15:27.241Z,93.52
2023-05-05T20:17:53.716Z,95.71
2023-05-05T20:20:22.281Z,95.48
2023-05-05T20:22:49.279Z,93.59
2023-05-05T20:25:15.796Z,94.49
2023-05-05T20:27:42.744Z,94.82
2023-05-05T20:30:10.381Z,96.78
2023-05-05T20:32:37.079Z,93.77
2023-05-05T20:35:03.826Z,94.63
2023-05-05T20:37:31.732Z,95.11
2023-05-05T20:39:58.117Z,92.11
2023-05-05T20:42:24.478Z,91.95
2023-05-05T20:44:50.909Z,93.89
2023-05-05T20:47:17.278Z,94.58
2023-05-05T20:49:43.630Z,94.44
2023-05-05T20:52:10.056Z,94.40
2023-05-05T20:54:37.770Z,96.83
2023-05-05T20:57:04.245Z,95.30
2023-05-05T20:59:30.631Z,98.13
2023-05-05T21:01:57.151Z,100.00
2023-05-05T21:04:23.630Z,100.00
2023-05-05T21:06:50.219Z,100.00
2023-05-05T21:09:16.636Z,100.00
2023-05-05T21:11:44.345Z,100.00
2023-05-05T21:14:10.729Z,100.00
2023-05-05T21:16:37.141Z,100.00
2023-05-05T21:19:03.526Z,100.00
2023-05-05T21:21:29.900Z,100.00
2023-05-05T21:23:56.253Z,100.00
2023-05-05T21:26:22.605Z,100.00
2023-05-05T21:28:50.396Z,100.00
2023-05-05T21:33:46.080Z,99.78
2023-05-05T21:36:12.778Z,98.04
2023-05-05T21:38:39.139Z,99.75
2023-05-05T21:41:05.537Z,98.93
2023-05-05T21:43:32.423Z,97.13
2023-05-05T21:46:00.844Z,97.85
2023-05-05T21:48:27.305Z,98.00
2023-05-05T21:50:53.688Z,99.74
2023-05-05T21:53:20.591Z,98.77
2023-05-05T21:55:47.268Z,99.39
2023-05-05T21:58:13.974Z,98.45
2023-05-05T22:00:40.379Z,97.51
2023-05-05T22:03:08.263Z,97.63
2023-05-05T22:05:34.800Z,97.66
2023-05-05T22:08:01.179Z,97.31
2023-05-05T22:10:27.578Z,97.65
2023-05-05T22:12:54.100Z,97.27
2023-05-05T22:15:21.228Z,97.53
2023-05-05T22:17:48.259Z,97.54
2023-05-05T22:20:16.148Z,97.30
2023-05-05T22:22:42.517Z,97.03
2023-05-05T22:25:09.818Z,95.66
2023-05-05T22:27:36.432Z,95.58
2023-05-05T22:30:03.290Z,96.97
2023-05-05T22:32:30.307Z,97.17
2023-05-05T22:34:56.700Z,96.16
2023-05-05T22:37:24.393Z,98.29
2023-05-05T22:39:50.769Z,96.88
2023-05-05T22:42:17.338Z,96.53
2023-05-05T22:44:44.114Z,97.02
2023-05-05T22:47:10.564Z,97.40
2023-05-05T22:49:37.168Z,97.21
2023-05-05T22:52:03.685Z,96.11
2023-05-05T22:54:31.373Z,96.20
2023-05-05T22:56:57.751Z,97.10
2023-05-05T22:59:24.183Z,98.07
2023-05-05T23:01:51.212Z,96.32
2023-05-05T23:04:17.701Z,97.40
2023-05-05T23:06:44.133Z,98.08
2023-05-05T23:09:10.500Z,98.89
2023-05-05T23:11:38.334Z,99.01
2023-05-05T23:14:04.728Z,97.22
2023-05-05T23:16:31.118Z,97.03
2023-05-05T23:18:57.604Z,97.13
2023-05-05T23:21:24.078Z,96.50
2023-05-05T23:23:50.435Z,99.62
2023-05-05T23:26:16.931Z,98.27
2023-05-05T23:28:44.608Z,98.28
2023-05-05T23:31:11.081Z,96.18
2023-05-05T23:33:37.484Z,97.08
2023-05-05T23:36:04.425Z,99.62
2023-05-05T23:38:30.887Z,97.87
2023-05-05T23:40:57.307Z,97.63
2023-05-05T23:43:23.719Z,97.70
2023-05-05T23:45:51.433Z,98.15
2023-05-05T23:48:17.846Z,97.50
2023-05-05T23:50:44.242Z,98.35
2023-05-05T23:53:10.622Z,99.44
2023-05-05T23:55:37.056Z,98.91
2023-05-05T23:58:03.425Z,97.74
